Regina Oldendorff — CQIB2 — position and weather

sailwx.info

Track history (hours):
 
Tides and Currents Weather Stations Pressure Air Temp Water Temp Dewpoint Dewpoint Depression Visibility Wind Speed Wind Dir Waves Ship Positions

Regina Oldendorff

Last reported at 2018-Jul-11 11:38 UTC. Time now 2018-Jul-19 07:51 UTC.
Position N 35°58' W 005°33'.

Length 260 m; draft 7.8 m.

Type: Cargo ship. MMSI: 255805910.

Date/timePositionNaut miles runAvg speedWind from/ knotsBaromVisibWave heightAir tempDewpointWater temp
2018-Jul-11 11:38N 35°58' W 005°33'211.8
2018-Jul-11 11:30N 35°59' W 005°32'611.3
2018-Jul-11 10:59N 36°01' W 005°25'4 8.7
2018-Jul-11 10:30N 36°05' W 005°23'3 1.0
2018-Jul-11 07:59N 36°07' W 005°22'0 0.0
2018-Jul-11 06:35N 36°07' W 005°22'0 0.0
2018-Jul-11 06:05N 36°07' W 005°22'0 0.1
2018-Jul-11 05:41N 36°07' W 005°22'0 0.0
2018-Jul-11 05:26N 36°07' W 005°22'0 0.2
2018-Jul-11 04:59N 36°07' W 005°22'0 0.1
2018-Jul-11 04:29N 36°07' W 005°22'0 0.1
2018-Jul-11 03:59N 36°07' W 005°23'0 0.1
2018-Jul-11 03:29N 36°07' W 005°22'0 0.1
2018-Jul-11 02:59N 36°07' W 005°22'0 0.0
2018-Jul-11 02:29N 36°07' W 005°22'0 0.1
2018-Jul-11 01:59N 36°07' W 005°22'0 0.0
2018-Jul-11 01:29N 36°07' W 005°22'0 0.2
2018-Jul-11 00:53N 36°07' W 005°22'0 0.1
2018-Jul-11 00:29N 36°07' W 005°22'0 0.0
2018-Jul-10 23:59N 36°07' W 005°22'0 0.0
2018-Jul-10 23:29N 36°07' W 005°22'0 0.2
2018-Jul-10 22:59N 36°07' W 005°22'0 0.0
2018-Jul-10 22:29N 36°07' W 005°22'0 0.4
2018-Jul-10 22:00N 36°07' W 005°22'2 4.7
2018-Jul-10 21:30N 36°05' W 005°21'3 6.7
2018-Jul-10 21:00N 36°05' W 005°17'5 9.3
2018-Jul-10 20:30N 36°05' W 005°11'510.1
2018-Jul-10 20:00N 36°06' W 005°05'712.4
2018-Jul-10 19:28N 36°07' W 004°57'912.7
2018-Jul-10 18:48N 36°08' W 004°46'14811.9
2018-Jul-10 06:20N 36°57' W 001°52'  
2018-Jul-05 16:19N 35°60' W 005°12'514.3
2018-Jul-05 16:00N 35°59' W 005°18'815.2
2018-Jul-05 15:30N 35°57' W 005°27'28711.0
2018-Jul-04 13:16N 38°60' W 010°07'413.3
2018-Jul-04 13:00N 39°03' W 010°07'61812.6
2018-Jul-02 11:48N 48°53' W 005°47'8610.3
2018-Jul-02 03:26N 49°37' W 003°55'511.4
2018-Jul-02 03:00N 49°40' W 003°48'611.6
2018-Jul-02 02:30N 49°43' W 003°41'611.6
2018-Jul-02 02:00N 49°46' W 003°33'611.4
2018-Jul-02 01:30N 49°48' W 003°25'510.9
2018-Jul-02 01:00N 49°51' W 003°18'510.6
2018-Jul-02 00:30N 49°54' W 003°11'510.0
2018-Jul-02 00:00N 49°57' W 003°04'5 9.6
2018-Jul-01 23:30N 49°59' W 002°58'5 9.1
2018-Jul-01 23:00N 50°00' W 002°51'4 8.7
2018-Jul-01 22:30N 50°02' W 002°45'4 8.4
2018-Jul-01 22:00N 50°03' W 002°38'4 8.1
2018-Jul-01 21:30N 50°04' W 002°32'11 8.2
2018-Jul-01 20:13N 50°07' W 002°16'5511.5
2018-Jul-01 15:28N 50°21' W 000°54'612.7
2018-Jul-01 15:00N 50°23' W 000°45'612.1
2018-Jul-01 14:30N 50°24' W 000°36'711.6
2018-Jul-01 13:56N 50°26' W 000°26'1810.3
2018-Jul-01 12:11N 50°31' E 000°01'3 9.3
2018-Jul-01 11:51N 50°32' E 000°06'  
Track history (hours):
 
Tides and Currents Weather Stations Pressure Air Temp Water Temp Dewpoint Dewpoint Depression Visibility Wind Speed Wind Dir Waves Ship Positions

Regina Oldendorff

Last reported at 2018-Jul-11 11:38 UTC. Time now 2018-Jul-19 07:51 UTC.
Position N 35°58' W 005°33'.

Length 260 m; draft 7.8 m.

Type: Cargo ship. MMSI: 255805910.

Date/timePositionNaut miles runAvg speedWind from/ knotsBaromVisibWave heightAir tempDewpointWater temp
2018-Jul-11 11:38N 35°58' W 005°33'211.8
2018-Jul-11 11:30N 35°59' W 005°32'611.3
2018-Jul-11 10:59N 36°01' W 005°25'4 8.7
2018-Jul-11 10:30N 36°05' W 005°23'3 1.0
2018-Jul-11 07:59N 36°07' W 005°22'0 0.0
2018-Jul-11 06:35N 36°07' W 005°22'0 0.0
2018-Jul-11 06:05N 36°07' W 005°22'0 0.1
2018-Jul-11 05:41N 36°07' W 005°22'0 0.0
2018-Jul-11 05:26N 36°07' W 005°22'0 0.2
2018-Jul-11 04:59N 36°07' W 005°22'0 0.1
2018-Jul-11 04:29N 36°07' W 005°22'0 0.1
2018-Jul-11 03:59N 36°07' W 005°23'0 0.1
2018-Jul-11 03:29N 36°07' W 005°22'0 0.1
2018-Jul-11 02:59N 36°07' W 005°22'0 0.0
2018-Jul-11 02:29N 36°07' W 005°22'0 0.1
2018-Jul-11 01:59N 36°07' W 005°22'0 0.0
2018-Jul-11 01:29N 36°07' W 005°22'0 0.2
2018-Jul-11 00:53N 36°07' W 005°22'0 0.1
2018-Jul-11 00:29N 36°07' W 005°22'0 0.0
2018-Jul-10 23:59N 36°07' W 005°22'0 0.0
2018-Jul-10 23:29N 36°07' W 005°22'0 0.2
2018-Jul-10 22:59N 36°07' W 005°22'0 0.0
2018-Jul-10 22:29N 36°07' W 005°22'0 0.4
2018-Jul-10 22:00N 36°07' W 005°22'2 4.7
2018-Jul-10 21:30N 36°05' W 005°21'3 6.7
2018-Jul-10 21:00N 36°05' W 005°17'5 9.3
2018-Jul-10 20:30N 36°05' W 005°11'510.1
2018-Jul-10 20:00N 36°06' W 005°05'712.4
2018-Jul-10 19:28N 36°07' W 004°57'912.7
2018-Jul-10 18:48N 36°08' W 004°46'14811.9
2018-Jul-10 06:20N 36°57' W 001°52'  
2018-Jul-05 16:19N 35°60' W 005°12'514.3
2018-Jul-05 16:00N 35°59' W 005°18'815.2
2018-Jul-05 15:30N 35°57' W 005°27'28711.0
2018-Jul-04 13:16N 38°60' W 010°07'413.3
2018-Jul-04 13:00N 39°03' W 010°07'61812.6
2018-Jul-02 11:48N 48°53' W 005°47'8610.3
2018-Jul-02 03:26N 49°37' W 003°55'511.4
2018-Jul-02 03:00N 49°40' W 003°48'611.6
2018-Jul-02 02:30N 49°43' W 003°41'611.6
2018-Jul-02 02:00N 49°46' W 003°33'611.4
2018-Jul-02 01:30N 49°48' W 003°25'510.9
2018-Jul-02 01:00N 49°51' W 003°18'510.6
2018-Jul-02 00:30N 49°54' W 003°11'510.0
2018-Jul-02 00:00N 49°57' W 003°04'5 9.6
2018-Jul-01 23:30N 49°59' W 002°58'5 9.1
2018-Jul-01 23:00N 50°00' W 002°51'4 8.7
2018-Jul-01 22:30N 50°02' W 002°45'4 8.4
2018-Jul-01 22:00N 50°03' W 002°38'4 8.1
2018-Jul-01 21:30N 50°04' W 002°32'11 8.2
2018-Jul-01 20:13N 50°07' W 002°16'5511.5
2018-Jul-01 15:28N 50°21' W 000°54'612.7
2018-Jul-01 15:00N 50°23' W 000°45'612.1
2018-Jul-01 14:30N 50°24' W 000°36'711.6
2018-Jul-01 13:56N 50°26' W 000°26'1810.3
2018-Jul-01 12:11N 50°31' E 000°01'3 9.3
2018-Jul-01 11:51N 50°32' E 000°06'  

Dump ship's entire track history